Terminal Aerodrome Forecast
Issued by NWS Missoula, MT

Home | Current Version | Previous Version | Text Only | Print | Product List | Glossary On
Versions: 1 2 3 4 5 6 7 8 9 10 11 12 13 14 15 16
000
FTUS45 KMSO 260533
TAFGPI
TAF
KGPI 260533Z 2606/2706 17007KT P6SM BKN100
     FM260700 19006KT P6SM VCSH BKN050 OVC060
     FM261500 17007KT P6SM BKN090=

USA.gov is the U.S. government's official web portal to all federal, state and local government web resources and services.